General Aviation Weather

Text Reports

Enter one or more of the following location identifiers separated by a space:

Zip Code, Four-Character ICAO or Three-Character IATA airport codes.

METAR - Aviation Routine Weather Report
KMFV - Melfa, Virginia
Updated at 3:55 PM GMT on May 03, 2015 (11:55 AM EDT):
METAR KMFV 031555Z AUTO 30004KT 10SM CLR 21/10 A3014 RMK AO2
TAF - Terminal Area Forecast
KMFV - Melfa, Virginia
Updated at 3:55 PM GMT on May 03, 2015 (11:55 AM EDT):
No TAF is currently available for this location.
Decoded:
No decoded TAF is available.
PIREP - Pilot Weather Report
KMFV - Melfa, Virginia
Updated at 3:55 PM GMT on May 03, 2015 (11:55 AM EDT):
No PIREP is currently available for this location.
AIRMET - Airmens Meteorological Information
KMFV - Melfa, Virginia
Updated at 3:55 PM GMT on May 03, 2015 (11:55 AM EDT):
No AIRMET is currently available for this location.
SIGMET - Significant Meteorological Information
KMFV - Melfa, Virginia
Updated at 3:55 PM GMT on May 03, 2015 (11:55 AM EDT):
No SIGMET is currently available for this location.
NOTAM - Notice to Airmen
KMFV - Melfa, Virginia
Updated at 3:55 PM GMT on May 03, 2015 (11:55 AM EDT):
No NOTAM is currently available for this location.
Forecast Area
KMFV - Melfa, Virginia
Updated at 3:55 PM GMT on May 03, 2015 (11:55 AM EDT):
No NOTAM is currently available for this location.
Aviation Weather Maps